CFG637 LIRF-LIML
Flight info
| Callsign | CFG637 |
|---|---|
| Flight time | 0h 53m |
| Altitude | 34000 |
| Route | NENIG5AXGILIO9G/25 GILIO DCT KARDU DCT EMBOS DCT GIPIX DCT KALMO |
| Aircraft | A339/H-SADE1E2E3GHIJ3J5M1P2RWXY/LB2D1 |
Departure
| Time | 2026-05-04 15:53 |
|---|---|
| Airport | Rome–Fiumicino Leonardo da Vinci International Airport (LIRF) |
Arrival
| Time | 2026-05-04 16:47 |
|---|---|
| Airport | Milano Linate Airport (LIML) |
| Time | Latitude | Longitude | Altitude | Speed | Heading |
|---|---|---|---|---|---|
| 2026-05-04 15:30 | 41.79794 | 12.25526 | 24 ft | 0 kts | 116° |
| 2026-05-04 15:41 | 41.79797 | 12.25519 | 24 ft | 2 kts | 116° |
| 2026-05-04 15:41 | 41.79804 | 12.25500 | 29 ft | 3 kts | 106° |
| 2026-05-04 15:41 | 41.79810 | 12.25480 | 28 ft | 3 kts | 75° |
| 2026-05-04 15:42 | 41.79807 | 12.25461 | 29 ft | 3 kts | 39° |
| 2026-05-04 15:42 | 41.79791 | 12.25446 | 29 ft | 3 kts | 25° |
| 2026-05-04 15:42 | 41.79779 | 12.25438 | 26 ft | 0 kts | 25° |
| 2026-05-04 15:47 | 41.79789 | 12.25444 | 29 ft | 5 kts | 25° |
| 2026-05-04 15:47 | 41.79842 | 12.25477 | 29 ft | 11 kts | 25° |
| 2026-05-04 15:47 | 41.79926 | 12.25530 | 27 ft | 16 kts | 25° |
| 2026-05-04 15:47 | 41.79985 | 12.25592 | 24 ft | 8 kts | 71° |
| 2026-05-04 15:48 | 41.79973 | 12.25680 | 25 ft | 11 kts | 113° |
| 2026-05-04 15:48 | 41.79937 | 12.25788 | 28 ft | 14 kts | 114° |
| 2026-05-04 15:48 | 41.80022 | 12.25916 | 25 ft | 13 kts | 25° |
| 2026-05-04 15:49 | 41.80121 | 12.25978 | 24 ft | 18 kts | 24° |
| 2026-05-04 15:49 | 41.80251 | 12.26058 | 22 ft | 23 kts | 25° |
| 2026-05-04 15:49 | 41.80407 | 12.26153 | 19 ft | 23 kts | 23° |
| 2026-05-04 15:49 | 41.80507 | 12.26204 | 19 ft | 15 kts | 42° |
| 2026-05-04 15:50 | 41.80555 | 12.26334 | 22 ft | 17 kts | 69° |
| 2026-05-04 15:50 | 41.80598 | 12.26491 | 20 ft | 20 kts | 71° |
| 2026-05-04 15:50 | 41.80650 | 12.26685 | 19 ft | 24 kts | 70° |
| 2026-05-04 15:50 | 41.80713 | 12.26908 | 14 ft | 22 kts | 69° |
| 2026-05-04 15:51 | 41.80772 | 12.27034 | 15 ft | 15 kts | 25° |
| 2026-05-04 15:51 | 41.80862 | 12.27013 | 15 ft | 11 kts | 341° |
| 2026-05-04 15:51 | 41.80941 | 12.26961 | 15 ft | 13 kts | 316° |
| 2026-05-04 15:51 | 41.80944 | 12.26881 | 16 ft | 0 kts | 256° |
| 2026-05-04 15:52 | 41.80943 | 12.26875 | 16 ft | 0 kts | 256° |
| 2026-05-04 15:52 | 41.80942 | 12.26873 | 16 ft | 1 kts | 255° |
| 2026-05-04 15:52 | 41.80940 | 12.26867 | 16 ft | 0 kts | 251° |
| 2026-05-04 15:53 | 41.80937 | 12.26857 | 16 ft | 9 kts | 251° |
| 2026-05-04 15:53 | 41.80773 | 12.26255 | 27 ft | 128 kts | 249° |
| 2026-05-04 15:53 | 41.80379 | 12.24790 | 388 ft | 186 kts | 249° |
| 2026-05-04 15:53 | 41.79942 | 12.23096 | 1484 ft | 199 kts | 246° |
| 2026-05-04 15:54 | 41.79476 | 12.21289 | 2511 ft | 221 kts | 250° |
| 2026-05-04 15:54 | 41.79232 | 12.19070 | 3069 ft | 251 kts | 266° |
| 2026-05-04 15:54 | 41.79201 | 12.16673 | 3557 ft | 264 kts | 266° |
| 2026-05-04 15:54 | 41.79158 | 12.14197 | 3668 ft | 265 kts | 265° |
| 2026-05-04 15:55 | 41.79104 | 12.11763 | 3775 ft | 265 kts | 265° |
| 2026-05-04 15:55 | 41.79038 | 12.09282 | 3892 ft | 267 kts | 265° |
| 2026-05-04 15:55 | 41.79010 | 12.06766 | 4410 ft | 272 kts | 267° |
| 2026-05-04 15:55 | 41.79015 | 12.04247 | 5515 ft | 270 kts | 267° |
| 2026-05-04 15:56 | 41.79022 | 12.01731 | 6548 ft | 271 kts | 268° |
| 2026-05-04 15:56 | 41.79026 | 11.99192 | 7492 ft | 273 kts | 267° |
| 2026-05-04 15:56 | 41.79023 | 11.97504 | 8156 ft | 274 kts | 268° |
| 2026-05-04 15:56 | 41.79016 | 11.94934 | 9175 ft | 275 kts | 267° |
| 2026-05-04 15:57 | 41.79009 | 11.92362 | 10199 ft | 277 kts | 268° |
| 2026-05-04 15:57 | 41.78997 | 11.89698 | 10723 ft | 297 kts | 268° |
| 2026-05-04 15:57 | 41.79008 | 11.86829 | 11039 ft | 320 kts | 272° |
| 2026-05-04 15:57 | 41.79420 | 11.83836 | 11631 ft | 333 kts | 285° |
| 2026-05-04 15:58 | 41.80352 | 11.80984 | 12519 ft | 336 kts | 298° |
| 2026-05-04 15:58 | 41.81574 | 11.78301 | 13356 ft | 339 kts | 299° |
| 2026-05-04 15:58 | 41.82800 | 11.75587 | 14195 ft | 341 kts | 299° |
| 2026-05-04 15:58 | 41.84025 | 11.72841 | 14924 ft | 344 kts | 298° |
| 2026-05-04 15:59 | 41.85255 | 11.70068 | 15643 ft | 348 kts | 298° |
| 2026-05-04 15:59 | 41.86496 | 11.67259 | 16385 ft | 351 kts | 298° |
| 2026-05-04 15:59 | 41.87751 | 11.64418 | 17054 ft | 356 kts | 298° |
| 2026-05-04 15:59 | 41.89019 | 11.61544 | 17779 ft | 359 kts | 298° |
| 2026-05-04 16:00 | 41.90444 | 11.58761 | 18463 ft | 365 kts | 305° |
| 2026-05-04 16:00 | 41.92158 | 11.56205 | 19081 ft | 371 kts | 311° |
| 2026-05-04 16:00 | 41.93955 | 11.53701 | 19688 ft | 374 kts | 311° |
| 2026-05-04 16:00 | 41.95743 | 11.51183 | 20330 ft | 378 kts | 311° |
| 2026-05-04 16:01 | 41.97561 | 11.48609 | 20964 ft | 381 kts | 311° |
| 2026-05-04 16:01 | 41.99394 | 11.46009 | 21589 ft | 385 kts | 311° |
| 2026-05-04 16:01 | 42.01245 | 11.43380 | 22213 ft | 389 kts | 311° |
| 2026-05-04 16:01 | 42.03119 | 11.40716 | 22847 ft | 393 kts | 311° |
| 2026-05-04 16:02 | 42.05015 | 11.38018 | 23500 ft | 397 kts | 311° |
| 2026-05-04 16:02 | 42.06925 | 11.35297 | 23781 ft | 400 kts | 311° |
| 2026-05-04 16:02 | 42.10743 | 11.29854 | 23956 ft | 400 kts | 311° |
| 2026-05-04 16:03 | 42.12639 | 11.27150 | 24058 ft | 402 kts | 311° |
| 2026-05-04 16:03 | 42.14556 | 11.24411 | 24104 ft | 402 kts | 311° |
| 2026-05-04 16:03 | 42.16471 | 11.21672 | 24104 ft | 402 kts | 311° |
| 2026-05-04 16:03 | 42.18396 | 11.18916 | 24249 ft | 405 kts | 311° |
| 2026-05-04 16:04 | 42.20327 | 11.16150 | 24975 ft | 402 kts | 310° |
| 2026-05-04 16:04 | 42.24152 | 11.10668 | 26342 ft | 402 kts | 310° |
| 2026-05-04 16:04 | 42.26068 | 11.07915 | 26957 ft | 403 kts | 309° |
| 2026-05-04 16:05 | 42.27989 | 11.05150 | 27586 ft | 403 kts | 309° |
| 2026-05-04 16:05 | 42.29911 | 11.02384 | 28209 ft | 404 kts | 309° |
| 2026-05-04 16:05 | 42.33742 | 10.96864 | 29353 ft | 406 kts | 309° |
| 2026-05-04 16:06 | 42.35832 | 10.94238 | 29872 ft | 412 kts | 315° |
| 2026-05-04 16:06 | 42.42448 | 10.88749 | 31181 ft | 428 kts | 327° |
| 2026-05-04 16:07 | 42.46032 | 10.86363 | 31780 ft | 430 kts | 327° |
| 2026-05-04 16:07 | 42.54123 | 10.80907 | 33025 ft | 436 kts | 326° |
| 2026-05-04 16:08 | 42.56841 | 10.79072 | 33323 ft | 437 kts | 326° |
| 2026-05-04 16:08 | 42.65037 | 10.73534 | 34040 ft | 437 kts | 326° |
| 2026-05-04 16:09 | 42.70438 | 10.69878 | 34110 ft | 436 kts | 326° |
| 2026-05-04 16:10 | 42.81345 | 10.62466 | 34110 ft | 438 kts | 326° |
| 2026-05-04 16:11 | 42.92285 | 10.55001 | 34105 ft | 443 kts | 326° |
| 2026-05-04 16:12 | 43.00942 | 10.50357 | 34105 ft | 458 kts | 338° |
| 2026-05-04 16:12 | 43.10378 | 10.47862 | 34107 ft | 460 kts | 341° |
| 2026-05-04 16:13 | 43.22972 | 10.44517 | 34111 ft | 461 kts | 341° |
| 2026-05-04 16:14 | 43.35589 | 10.41174 | 34119 ft | 461 kts | 341° |
| 2026-05-04 16:16 | 43.51352 | 10.36975 | 34112 ft | 461 kts | 342° |
| 2026-05-04 16:17 | 43.67091 | 10.32755 | 34103 ft | 462 kts | 342° |
| 2026-05-04 16:18 | 43.79711 | 10.29354 | 34103 ft | 463 kts | 343° |
| 2026-05-04 16:19 | 43.88611 | 10.24848 | 34104 ft | 453 kts | 328° |
| 2026-05-04 16:19 | 43.94272 | 10.20973 | 34104 ft | 454 kts | 329° |
| 2026-05-04 16:20 | 44.02723 | 10.15169 | 32475 ft | 450 kts | 326° |
| 2026-05-04 16:20 | 44.07541 | 10.09741 | 30300 ft | 443 kts | 308° |
| 2026-05-04 16:21 | 44.12721 | 9.99461 | 27378 ft | 426 kts | 301° |
| 2026-05-04 16:22 | 44.16033 | 9.92691 | 25538 ft | 419 kts | 301° |
| 2026-05-04 16:22 | 44.20896 | 9.82699 | 22755 ft | 410 kts | 302° |
| 2026-05-04 16:23 | 44.25567 | 9.73077 | 20098 ft | 392 kts | 301° |
| 2026-05-04 16:24 | 44.31648 | 9.60891 | 16432 ft | 374 kts | 309° |
| 2026-05-04 16:25 | 44.35712 | 9.56444 | 14514 ft | 370 kts | 328° |
| 2026-05-04 16:26 | 44.44467 | 9.49329 | 12432 ft | 368 kts | 327° |
| 2026-05-04 16:26 | 44.51023 | 9.43924 | 12133 ft | 353 kts | 327° |
| 2026-05-04 16:27 | 44.55048 | 9.40604 | 11776 ft | 315 kts | 327° |
| 2026-05-04 16:28 | 44.60728 | 9.36629 | 9718 ft | 307 kts | 348° |
| 2026-05-04 16:28 | 44.66928 | 9.35993 | 7720 ft | 290 kts | 356° |
| 2026-05-04 16:29 | 44.74391 | 9.35230 | 5616 ft | 257 kts | 357° |
| 2026-05-04 16:30 | 44.79715 | 9.34695 | 5285 ft | 253 kts | 358° |
| 2026-05-04 16:31 | 44.82829 | 9.36433 | 5066 ft | 248 kts | 50° |
| 2026-05-04 16:31 | 44.83631 | 9.43467 | 6780 ft | 247 kts | 94° |
| 2026-05-04 16:32 | 44.84555 | 9.50734 | 7992 ft | 264 kts | 61° |
| 2026-05-04 16:33 | 44.86504 | 9.55128 | 7957 ft | 259 kts | 61° |
| 2026-05-04 16:33 | 44.88270 | 9.59232 | 7478 ft | 238 kts | 62° |
| 2026-05-04 16:34 | 44.90798 | 9.62057 | 6586 ft | 240 kts | 12° |
| 2026-05-04 16:34 | 44.92459 | 9.62081 | 6247 ft | 235 kts | 353° |
| 2026-05-04 16:35 | 44.97352 | 9.60968 | 5995 ft | 238 kts | 341° |
| 2026-05-04 16:35 | 44.99565 | 9.55567 | 5416 ft | 223 kts | 261° |
| 2026-05-04 16:36 | 44.99287 | 9.53431 | 5195 ft | 219 kts | 256° |
| 2026-05-04 16:36 | 44.98739 | 9.49062 | 5012 ft | 227 kts | 262° |
| 2026-05-04 16:37 | 44.98446 | 9.44612 | 5006 ft | 229 kts | 265° |
| 2026-05-04 16:37 | 44.98332 | 9.42371 | 5007 ft | 228 kts | 265° |
| 2026-05-04 16:37 | 44.98108 | 9.37882 | 5010 ft | 229 kts | 265° |
| 2026-05-04 16:38 | 44.98604 | 9.33544 | 5025 ft | 231 kts | 305° |
| 2026-05-04 16:39 | 45.02892 | 9.31935 | 4289 ft | 222 kts | 3° |
| 2026-05-04 16:39 | 45.05950 | 9.31819 | 4024 ft | 219 kts | 354° |
| 2026-05-04 16:40 | 45.09007 | 9.31482 | 4019 ft | 221 kts | 355° |
| 2026-05-04 16:40 | 45.12073 | 9.31159 | 4011 ft | 222 kts | 354° |
| 2026-05-04 16:41 | 45.15099 | 9.30842 | 3552 ft | 213 kts | 353° |
| 2026-05-04 16:41 | 45.19552 | 9.30369 | 3020 ft | 212 kts | 354° |
| 2026-05-04 16:42 | 45.24055 | 9.29888 | 3002 ft | 216 kts | 353° |
| 2026-05-04 16:43 | 45.27060 | 9.29568 | 3001 ft | 216 kts | 353° |
| 2026-05-04 16:43 | 45.29407 | 9.29319 | 3007 ft | 188 kts | 352° |
| 2026-05-04 16:43 | 45.30680 | 9.29181 | 2826 ft | 179 kts | 352° |
| 2026-05-04 16:44 | 45.34933 | 9.28723 | 2028 ft | 144 kts | 351° |
| 2026-05-04 16:45 | 45.36873 | 9.28517 | 1652 ft | 142 kts | 352° |
| 2026-05-04 16:46 | 45.39761 | 9.28222 | 1097 ft | 139 kts | 354° |
| 2026-05-04 16:46 | 45.41667 | 9.28035 | 760 ft | 137 kts | 352° |
| 2026-05-04 16:47 | 45.43544 | 9.27817 | 420 ft | 136 kts | 354° |
| 2026-05-04 16:47 | 45.44875 | 9.27669 | 370 ft | 26 kts | 355° |
| 2026-05-04 16:48 | 45.45430 | 9.27753 | 369 ft | 16 kts | 38° |
| 2026-05-04 16:48 | 45.45462 | 9.27902 | 368 ft | 17 kts | 91° |
| 2026-05-04 16:49 | 45.45416 | 9.28140 | 372 ft | 11 kts | 155° |
| 2026-05-04 16:49 | 45.45255 | 9.28078 | 370 ft | 3 kts | 180° |
| 2026-05-04 16:50 | 45.45221 | 9.28131 | 369 ft | 3 kts | 124° |
| 2026-05-04 16:50 | 45.45218 | 9.28141 | 369 ft | 0 kts | 118° |